Chiang Mai, Thailand

4:40 PM ICT on August 28, 2015 (GMT +0700)
ThaiWx Station | | Change Station
CLOSE
Current Station
Personal Weather Station
Location: Chiang Mai, Pa Daet
Elevation: 1007 ft
Nearby Weather Stations

Elev 1007 ft 18.77 °N, 98.97 °E | Updated 16 minutes ago

Scattered Clouds
Scattered Clouds
90.1 °F
Feels Like 99 °F
N
0.0
Wind Variable Wind from SSE
Gusts 0.9 mph

Today
High -- | Low -- °F
--% Chance of Precip.
Yesterday
High -- | Low -- °F
Precip. -- in
6:08 AM 6:42 PM
Waxing Gibbous, 97% visible
Pressure 29.74 in
Visibility 6.2 miles
Clouds Scattered Clouds 4000 ft
Scattered Clouds 30000 ft
Heat Index 99 °F
Dew Point 73 °F
Humidity 58%
Rainfall 0.00 in
Snow Depth Not available.
UV 4 out of 12
Pollen Not available.
Air Quality Not available.
Flu Activity Not available.
METAR VTCC 280930Z 25004KT 9999 SCT040 SCT300 32/19 Q1007 A2975 NOSIG
Pressure 29.74 in
Visibility 6.2 miles
Clouds Scattered Clouds 4000 ft
Scattered Clouds 30000 ft
Heat Index 99 °F
Dew Point 73 °F
Humidity 58%
Rainfall 0.00 in
Snow Depth Not available.
UV 4 out of 12
Pollen Not available.
Air Quality Not available.
Flu Activity Not available.
METAR VTCC 280930Z 25004KT 9999 SCT040 SCT300 32/19 Q1007 A2975 NOSIG

10-Day Weather Forecast

×

Almanac

Astronomy

Aug. 28, 2015 Rise Set
Actual Time
Civil Twilight
Nautical Twilight
Astronomical Twilight
Moon
Length of Visible Light
Length of Day
Tomorrow will be .
, % of the Moon is Illuminated

Today's Extremes

Country Highs Country Lows

Community

WunderPhotos

Upload Photos

1,850,352 photos uploaded!

WunderBlogs® & News

Nearby

Air Quality

  Air Quality AQ Index Pollutant
Not available.

Snow Depth

Station Depth Elevation

Earthquake Activity

City Distance Mag. Time & Date
Minimum magnitude displayed is 2.5.

Coastal Water Temperatures

Place Temperature

Stations

Nearby Weather Stations

Station Location Temp. Windchill Dew Point Humidity Wind Precip. Elev Updated Type